createdAt,value
2022-12-06T00:01:15.966Z,2.10
2022-12-06T00:03:45.506Z,2.20
2022-12-06T00:06:18.693Z,2.10
2022-12-06T00:08:47.691Z,2.10
2022-12-06T00:11:19.989Z,2.10
2022-12-06T00:13:48.630Z,2.20
2022-12-06T00:16:17.373Z,2.20
2022-12-06T00:18:46.178Z,2.20
2022-12-06T00:21:17.548Z,2.20
2022-12-06T00:23:47.870Z,2.10
2022-12-06T00:26:15.644Z,2.10
2022-12-06T00:28:43.790Z,2.10
2022-12-06T00:31:15.068Z,2.10
2022-12-06T00:33:42.849Z,2.10
2022-12-06T00:36:14.127Z,2.10
2022-12-06T00:38:41.860Z,2.10
2022-12-06T00:41:11.969Z,2.10
2022-12-06T00:43:39.437Z,2.10
2022-12-06T00:46:08.640Z,2.10
2022-12-06T00:48:36.061Z,2.10
2022-12-06T00:51:03.691Z,2.10
2022-12-06T00:53:31.221Z,2.10
2022-12-06T00:55:58.379Z,2.10
2022-12-06T00:58:25.962Z,2.20
2022-12-06T01:00:53.326Z,2.10
2022-12-06T01:03:21.840Z,2.10
2022-12-06T01:05:50.996Z,2.20
2022-12-06T01:08:19.305Z,2.20
2022-12-06T01:10:54.545Z,2.20
2022-12-06T01:13:21.957Z,2.10
2022-12-06T01:15:49.049Z,2.20
2022-12-06T01:18:16.545Z,2.20
2022-12-06T01:20:43.566Z,2.20
2022-12-06T01:23:10.982Z,2.20
2022-12-06T01:25:38.061Z,2.20
2022-12-06T01:28:05.634Z,2.20
2022-12-06T01:30:32.795Z,2.20
2022-12-06T01:33:00.229Z,2.20
2022-12-06T01:35:27.357Z,2.20
2022-12-06T01:37:54.763Z,2.20
2022-12-06T01:40:21.781Z,2.20
2022-12-06T01:42:49.138Z,2.20
2022-12-06T01:45:16.322Z,2.20
2022-12-06T01:47:44.300Z,2.20
2022-12-06T01:50:22.254Z,2.20
2022-12-06T01:53:00.981Z,2.20
2022-12-06T01:55:31.017Z,2.20
2022-12-06T01:58:02.275Z,2.20
2022-12-06T02:00:29.440Z,2.10
2022-12-06T02:03:00.482Z,2.10
2022-12-06T02:05:29.938Z,2.10
2022-12-06T02:07:58.903Z,2.10
2022-12-06T02:10:26.718Z,2.10
2022-12-06T02:12:58.506Z,2.00
2022-12-06T02:15:50.209Z,2.00
2022-12-06T02:18:29.996Z,2.00
2022-12-06T02:21:15.309Z,2.00
2022-12-06T02:23:58.671Z,2.00
2022-12-06T02:26:31.803Z,2.00
2022-12-06T02:29:20.305Z,1.90
2022-12-06T02:32:14.591Z,2.00
2022-12-06T02:35:06.917Z,2.00
2022-12-06T02:37:46.623Z,2.00
2022-12-06T02:40:19.960Z,1.90
2022-12-06T02:43:09.515Z,2.00
2022-12-06T02:45:41.641Z,1.90
2022-12-06T02:48:10.564Z,1.90
2022-12-06T02:50:46.645Z,1.90
2022-12-06T02:53:18.794Z,2.00
2022-12-06T02:55:47.020Z,1.90
2022-12-06T02:58:14.094Z,1.90
2022-12-06T03:00:42.940Z,1.90
2022-12-06T03:03:36.285Z,1.90
2022-12-06T03:06:03.739Z,1.90
2022-12-06T03:08:59.318Z,1.90
2022-12-06T03:11:47.229Z,1.80
2022-12-06T03:14:19.593Z,1.80
2022-12-06T03:16:49.740Z,1.80
2022-12-06T03:19:16.751Z,1.70
2022-12-06T03:21:57.670Z,1.70
2022-12-06T03:24:27.568Z,1.70
2022-12-06T03:26:57.464Z,1.70
2022-12-06T03:29:26.856Z,1.70
2022-12-06T03:31:56.065Z,1.70
2022-12-06T03:34:34.829Z,1.70
2022-12-06T03:37:03.897Z,1.80
2022-12-06T03:39:40.380Z,1.70
2022-12-06T03:42:09.691Z,1.80
2022-12-06T03:44:37.203Z,1.80
2022-12-06T03:47:37.828Z,1.80
2022-12-06T03:50:10.108Z,1.80
2022-12-06T03:52:39.229Z,1.80
2022-12-06T03:55:06.947Z,1.80
2022-12-06T03:57:34.938Z,1.80
2022-12-06T04:00:02.203Z,1.80
2022-12-06T04:02:38.771Z,1.80
2022-12-06T04:05:06.316Z,1.80
2022-12-06T04:07:33.777Z,1.80
2022-12-06T04:10:03.898Z,1.80
2022-12-06T04:12:51.955Z,1.80
2022-12-06T04:15:19.967Z,1.80
2022-12-06T04:18:06.051Z,1.80
2022-12-06T04:20:53.431Z,1.80
2022-12-06T04:23:21.051Z,1.80
2022-12-06T04:25:48.200Z,1.70
2022-12-06T04:28:34.264Z,1.80
2022-12-06T04:31:22.307Z,1.80
2022-12-06T04:34:09.825Z,1.80
2022-12-06T04:36:58.399Z,1.80
2022-12-06T04:39:26.350Z,1.80
2022-12-06T04:42:12.382Z,1.80
2022-12-06T04:44:40.008Z,1.80
2022-12-06T04:47:07.959Z,1.80
2022-12-06T04:49:35.993Z,1.80
2022-12-06T04:52:04.497Z,1.80
2022-12-06T04:54:32.200Z,1.80
2022-12-06T04:57:00.414Z,1.80
2022-12-06T04:59:28.923Z,1.80
2022-12-06T05:01:56.946Z,1.90
2022-12-06T05:04:24.552Z,1.80
2022-12-06T05:06:52.517Z,1.90
2022-12-06T05:09:19.934Z,1.80
2022-12-06T05:11:47.109Z,1.80
2022-12-06T05:14:14.622Z,1.90
2022-12-06T05:16:41.801Z,1.90
2022-12-06T05:19:12.368Z,1.90
2022-12-06T05:21:39.971Z,1.90
2022-12-06T05:24:08.178Z,1.90
2022-12-06T05:26:35.300Z,1.90
2022-12-06T05:29:02.660Z,2.00
2022-12-06T05:31:30.996Z,2.00
2022-12-06T05:33:58.534Z,2.00
2022-12-06T05:36:27.687Z,1.90
2022-12-06T05:38:56.472Z,2.00
2022-12-06T05:41:24.586Z,2.10
2022-12-06T05:43:52.494Z,2.00
2022-12-06T05:46:20.414Z,2.00
2022-12-06T05:48:47.915Z,2.00
2022-12-06T05:51:15.154Z,2.00
2022-12-06T05:53:42.883Z,2.00
2022-12-06T05:56:12.246Z,2.00
2022-12-06T05:58:40.408Z,2.00
2022-12-06T06:01:08.656Z,2.00
2022-12-06T06:03:38.197Z,2.00
2022-12-06T06:06:08.245Z,1.90
2022-12-06T06:08:35.609Z,1.90
2022-12-06T06:11:02.857Z,2.00
2022-12-06T06:13:30.926Z,2.00
2022-12-06T06:15:58.138Z,2.00
2022-12-06T06:18:25.565Z,2.10
2022-12-06T06:20:55.119Z,2.00
2022-12-06T06:23:24.300Z,2.00
2022-12-06T06:25:51.399Z,2.00
2022-12-06T06:28:19.196Z,2.10
2022-12-06T06:30:46.635Z,2.00
2022-12-06T06:33:14.931Z,2.10
2022-12-06T06:35:42.577Z,2.10
2022-12-06T06:38:09.974Z,2.00
2022-12-06T06:40:37.412Z,2.00
2022-12-06T06:43:23.563Z,2.00
2022-12-06T06:45:59.285Z,2.00
2022-12-06T06:48:29.337Z,2.10
2022-12-06T06:50:57.896Z,2.00
2022-12-06T06:53:27.793Z,2.10
2022-12-06T06:55:55.540Z,2.00
2022-12-06T06:58:24.154Z,2.10
2022-12-06T07:00:56.239Z,2.10
2022-12-06T07:03:24.776Z,2.10
2022-12-06T07:06:03.810Z,2.10
2022-12-06T07:08:31.949Z,2.10
2022-12-06T07:11:02.786Z,2.10
2022-12-06T07:13:32.213Z,2.10
2022-12-06T07:15:59.553Z,2.10
2022-12-06T07:18:27.073Z,2.10
2022-12-06T07:21:06.214Z,2.10
2022-12-06T07:23:35.630Z,2.20
2022-12-06T07:26:17.329Z,2.20
2022-12-06T07:28:46.308Z,2.20
2022-12-06T07:31:16.382Z,2.10
2022-12-06T07:33:45.312Z,2.20
2022-12-06T07:36:14.640Z,2.20
2022-12-06T07:38:43.756Z,2.20
2022-12-06T07:41:45.525Z,2.20
2022-12-06T07:44:41.707Z,2.20
2022-12-06T07:47:09.891Z,2.20
2022-12-06T07:49:37.299Z,2.20
2022-12-06T07:52:04.455Z,2.20
2022-12-06T07:54:32.003Z,2.20
2022-12-06T07:56:59.072Z,2.20
2022-12-06T07:59:26.785Z,2.20
2022-12-06T08:01:53.981Z,2.20
2022-12-06T08:04:21.768Z,2.30
2022-12-06T08:06:48.924Z,2.20
2022-12-06T08:09:16.532Z,2.20
2022-12-06T08:11:43.676Z,2.30
2022-12-06T08:14:12.112Z,2.30
2022-12-06T08:16:41.250Z,2.40
2022-12-06T08:19:08.954Z,2.30
2022-12-06T08:21:36.139Z,2.30
2022-12-06T08:24:04.215Z,2.40
2022-12-06T08:26:31.328Z,2.40
2022-12-06T08:29:01.516Z,2.40
2022-12-06T08:31:29.106Z,2.40
2022-12-06T08:33:57.066Z,2.40
2022-12-06T08:36:24.939Z,2.40
2022-12-06T08:38:53.194Z,2.40
2022-12-06T08:41:40.576Z,2.40
2022-12-06T08:44:11.563Z,2.40
2022-12-06T08:46:38.870Z,2.40
2022-12-06T08:49:06.339Z,2.40
2022-12-06T08:51:34.722Z,2.40
2022-12-06T08:54:03.173Z,2.40
2022-12-06T08:56:30.434Z,2.40
2022-12-06T08:58:58.400Z,2.50
2022-12-06T09:01:32.567Z,2.50
2022-12-06T09:04:05.951Z,2.50
2022-12-06T09:06:33.322Z,2.40
2022-12-06T09:09:00.691Z,2.50
2022-12-06T09:11:27.992Z,2.50
2022-12-06T09:13:55.727Z,2.50
2022-12-06T09:16:24.176Z,2.60
2022-12-06T09:18:51.980Z,2.60
2022-12-06T09:21:24.401Z,2.60
2022-12-06T09:23:56.413Z,2.60
2022-12-06T09:26:24.575Z,2.60
2022-12-06T09:28:53.646Z,2.60
2022-12-06T09:31:20.944Z,2.50
2022-12-06T09:33:48.504Z,2.60
2022-12-06T09:36:28.049Z,2.50
2022-12-06T09:39:35.343Z,2.50
2022-12-06T09:42:08.200Z,2.50
2022-12-06T09:44:38.536Z,2.50
2022-12-06T09:47:30.152Z,2.50
2022-12-06T09:50:32.239Z,2.50
2022-12-06T09:53:31.125Z,2.50
2022-12-06T09:56:16.096Z,2.50
2022-12-06T09:59:19.702Z,2.50
2022-12-06T10:01:56.302Z,2.50
2022-12-06T10:04:55.837Z,2.50
2022-12-06T10:07:42.651Z,2.50
2022-12-06T10:10:26.271Z,2.50
2022-12-06T10:12:56.883Z,2.50
2022-12-06T10:15:23.971Z,2.50
2022-12-06T10:18:28.821Z,2.50
2022-12-06T10:21:29.380Z,2.50
2022-12-06T10:24:41.563Z,2.50
2022-12-06T10:27:37.726Z,2.50
2022-12-06T10:30:11.505Z,2.50
2022-12-06T10:33:06.800Z,2.50
2022-12-06T10:35:48.828Z,2.50
2022-12-06T10:38:34.313Z,2.50
2022-12-06T10:41:27.277Z,2.50
2022-12-06T10:44:24.965Z,2.50
2022-12-06T10:47:07.808Z,2.50
2022-12-06T10:50:02.722Z,2.50
2022-12-06T10:52:46.142Z,2.50
2022-12-06T10:55:27.926Z,2.60
2022-12-06T10:58:21.144Z,2.60
2022-12-06T11:01:28.467Z,2.60
2022-12-06T11:04:10.170Z,2.60
2022-12-06T11:06:39.552Z,2.60
2022-12-06T11:09:34.464Z,2.60
2022-12-06T11:12:02.460Z,2.50
2022-12-06T11:14:41.356Z,2.60
2022-12-06T11:17:23.567Z,2.50
2022-12-06T11:19:59.942Z,2.50
2022-12-06T11:22:50.397Z,2.50
2022-12-06T11:25:34.488Z,2.50
2022-12-06T11:28:22.112Z,2.50
2022-12-06T11:30:53.363Z,2.50
2022-12-06T11:33:26.277Z,2.50
2022-12-06T11:35:53.853Z,2.60
2022-12-06T11:38:20.980Z,2.50
2022-12-06T11:40:51.837Z,2.50
2022-12-06T11:43:26.753Z,2.50
2022-12-06T11:45:56.458Z,2.60
2022-12-06T11:48:26.041Z,2.60
2022-12-06T11:50:53.828Z,2.70
2022-12-06T11:53:25.358Z,2.60
2022-12-06T11:55:57.345Z,2.60
2022-12-06T11:58:34.372Z,2.70
2022-12-06T12:01:12.124Z,2.70
2022-12-06T12:03:42.268Z,2.70
2022-12-06T12:06:21.955Z,2.70
2022-12-06T12:09:02.224Z,2.70
2022-12-06T12:11:33.623Z,2.70
2022-12-06T12:14:30.774Z,2.70
2022-12-06T12:17:03.526Z,2.60
2022-12-06T12:19:33.483Z,2.60
2022-12-06T12:22:16.202Z,2.50
2022-12-06T12:25:17.905Z,2.50
2022-12-06T12:27:40.820Z,2.40
2022-12-06T12:30:35.343Z,2.40
2022-12-06T12:33:05.848Z,2.40
2022-12-06T12:35:34.351Z,2.30
2022-12-06T12:38:13.171Z,2.30
2022-12-06T12:40:51.178Z,2.30
2022-12-06T12:43:28.473Z,2.30
2022-12-06T12:46:22.343Z,2.30
2022-12-06T12:48:51.501Z,2.30
2022-12-06T12:51:31.787Z,2.30
2022-12-06T12:54:06.106Z,2.30
2022-12-06T12:56:36.659Z,2.30
2022-12-06T12:59:13.820Z,2.20
2022-12-06T13:01:51.798Z,2.20
2022-12-06T13:04:24.998Z,2.10
2022-12-06T13:07:10.683Z,2.10
2022-12-06T13:09:41.156Z,2.10
2022-12-06T13:12:19.393Z,2.10
2022-12-06T13:14:55.770Z,2.10
2022-12-06T13:17:26.609Z,2.10
2022-12-06T13:19:54.768Z,2.10
2022-12-06T13:22:26.949Z,2.10
2022-12-06T13:25:04.354Z,2.10
2022-12-06T13:27:40.115Z,2.10
2022-12-06T13:30:18.980Z,2.20
2022-12-06T13:32:52.458Z,2.20
2022-12-06T13:35:30.582Z,2.20
2022-12-06T13:38:03.651Z,2.20
2022-12-06T13:40:34.025Z,2.20
2022-12-06T13:43:03.403Z,2.20
2022-12-06T13:45:36.919Z,2.20
2022-12-06T13:48:04.519Z,2.20
2022-12-06T13:50:31.883Z,2.20
2022-12-06T13:53:02.891Z,2.20
2022-12-06T13:55:30.232Z,2.20
2022-12-06T13:58:00.415Z,2.20
2022-12-06T14:00:30.949Z,2.20
2022-12-06T14:03:27.113Z,2.30
2022-12-06T14:06:15.788Z,2.30
2022-12-06T14:08:49.242Z,2.30
2022-12-06T14:11:22.076Z,2.30
2022-12-06T14:14:00.998Z,2.30
2022-12-06T14:16:34.352Z,2.30
2022-12-06T14:19:24.816Z,2.30
2022-12-06T14:21:57.471Z,2.40
2022-12-06T14:24:33.691Z,2.30
2022-12-06T14:27:12.953Z,2.30
2022-12-06T14:29:41.589Z,2.30
2022-12-06T14:32:09.379Z,2.20
2022-12-06T14:34:37.833Z,2.20
2022-12-06T14:37:22.709Z,2.20
2022-12-06T14:39:52.973Z,2.20
2022-12-06T14:42:39.477Z,2.20
2022-12-06T14:45:15.918Z,2.20
2022-12-06T14:47:46.371Z,2.20
2022-12-06T14:50:32.199Z,2.20
2022-12-06T14:53:03.840Z,2.20
2022-12-06T14:55:37.369Z,2.20
2022-12-06T14:58:16.791Z,2.20
2022-12-06T15:01:15.973Z,2.20
2022-12-06T15:03:43.679Z,2.20
2022-12-06T15:06:15.293Z,2.20
2022-12-06T15:08:50.448Z,2.10
2022-12-06T15:11:41.799Z,2.10
2022-12-06T15:14:13.926Z,2.20
2022-12-06T15:16:46.756Z,2.20
2022-12-06T15:19:16.358Z,2.10
2022-12-06T15:21:43.651Z,2.20
2022-12-06T15:24:26.092Z,2.20
2022-12-06T15:26:53.560Z,2.20
2022-12-06T15:29:21.872Z,2.20
2022-12-06T15:31:54.753Z,2.20
2022-12-06T15:34:30.032Z,2.30
2022-12-06T15:37:30.356Z,2.20
2022-12-06T15:39:46.592Z,2.10
2022-12-06T15:42:18.569Z,2.20
2022-12-06T15:44:49.417Z,2.20
2022-12-06T15:47:20.362Z,2.20
2022-12-06T15:49:48.941Z,2.30
2022-12-06T15:52:18.750Z,2.20
2022-12-06T15:54:46.709Z,2.10
2022-12-06T15:57:13.774Z,2.20
2022-12-06T15:59:41.324Z,2.20
2022-12-06T16:02:17.199Z,2.20
2022-12-06T16:04:48.604Z,2.20
2022-12-06T16:07:19.158Z,2.20
2022-12-06T16:09:48.195Z,2.20
2022-12-06T16:12:15.454Z,2.20
2022-12-06T16:14:43.220Z,2.20
2022-12-06T16:17:10.505Z,2.20
2022-12-06T16:19:56.530Z,2.20
2022-12-06T16:22:43.607Z,2.20
2022-12-06T16:25:11.710Z,2.20
2022-12-06T16:27:38.859Z,2.20
2022-12-06T16:30:06.900Z,2.20
2022-12-06T16:32:34.299Z,2.20
2022-12-06T16:35:02.061Z,2.10
2022-12-06T16:37:29.410Z,2.10
2022-12-06T16:39:56.924Z,2.10
2022-12-06T16:42:24.019Z,2.00
2022-12-06T16:44:51.786Z,2.00
2022-12-06T16:49:48.462Z,1.90
2022-12-06T16:52:17.195Z,1.90
2022-12-06T16:54:45.094Z,1.90
2022-12-06T16:57:13.556Z,1.90
2022-12-06T16:59:42.457Z,1.90
2022-12-06T17:02:36.209Z,1.90
2022-12-06T17:05:08.360Z,1.90
2022-12-06T17:07:36.886Z,1.90
2022-12-06T17:10:05.035Z,1.90
2022-12-06T17:12:32.339Z,1.80
2022-12-06T17:15:00.903Z,1.80
2022-12-06T17:17:29.464Z,1.80
2022-12-06T17:19:57.056Z,1.80
2022-12-06T17:22:25.156Z,1.80
2022-12-06T17:24:52.581Z,1.80
2022-12-06T17:27:19.735Z,1.80
2022-12-06T17:29:47.214Z,1.80
2022-12-06T17:32:14.444Z,1.80
2022-12-06T17:34:41.904Z,1.80
2022-12-06T17:37:09.308Z,1.80
2022-12-06T17:39:36.773Z,1.80
2022-12-06T17:42:22.404Z,1.80
2022-12-06T17:44:51.207Z,1.70
2022-12-06T17:47:19.224Z,1.80
2022-12-06T17:49:46.727Z,1.80
2022-12-06T17:52:14.248Z,1.80
2022-12-06T17:54:42.101Z,1.70
2022-12-06T17:57:18.564Z,1.70
2022-12-06T17:59:46.799Z,1.80
2022-12-06T18:02:18.016Z,1.70
2022-12-06T18:04:47.826Z,1.70
2022-12-06T18:07:16.508Z,1.70
2022-12-06T18:09:44.503Z,1.70
2022-12-06T18:12:13.274Z,1.80
2022-12-06T18:14:40.813Z,1.80
2022-12-06T18:17:08.273Z,1.70
2022-12-06T18:19:36.035Z,1.80
2022-12-06T18:22:03.746Z,1.80
2022-12-06T18:24:35.293Z,1.90
2022-12-06T18:27:04.953Z,1.70
2022-12-06T18:29:32.491Z,1.80
2022-12-06T18:31:59.864Z,1.70
2022-12-06T18:34:27.443Z,1.80
2022-12-06T18:36:54.561Z,1.80
2022-12-06T18:39:25.017Z,1.70
2022-12-06T18:41:53.920Z,1.80
2022-12-06T18:44:21.852Z,1.80
2022-12-06T18:46:48.990Z,1.70
2022-12-06T18:49:16.542Z,1.70
2022-12-06T18:51:43.709Z,1.60
2022-12-06T18:54:13.714Z,1.60
2022-12-06T18:56:41.972Z,1.70
2022-12-06T18:59:11.814Z,1.70
2022-12-06T19:01:40.586Z,1.60
2022-12-06T19:04:11.441Z,1.60
2022-12-06T19:06:38.966Z,1.60
2022-12-06T19:09:09.787Z,1.60
2022-12-06T19:11:42.210Z,1.50
2022-12-06T19:14:10.285Z,1.60
2022-12-06T19:16:40.489Z,1.60
2022-12-06T19:19:16.158Z,1.60
2022-12-06T19:21:44.956Z,1.60
2022-12-06T19:24:15.546Z,1.60
2022-12-06T19:26:43.525Z,1.60
2022-12-06T19:29:10.995Z,1.60
2022-12-06T19:31:38.102Z,1.60
2022-12-06T19:34:05.608Z,1.60
2022-12-06T19:36:32.727Z,1.60
2022-12-06T19:39:08.533Z,1.60
2022-12-06T19:41:58.817Z,1.70
2022-12-06T19:44:27.115Z,1.70
2022-12-06T19:46:54.261Z,1.70
2022-12-06T19:49:23.784Z,1.60
2022-12-06T19:51:51.659Z,1.70
2022-12-06T19:54:22.450Z,1.80
2022-12-06T19:56:51.313Z,1.70
2022-12-06T19:59:19.564Z,1.70
2022-12-06T20:01:47.853Z,1.60
2022-12-06T20:04:17.737Z,1.70
2022-12-06T20:06:45.923Z,1.70
2022-12-06T20:09:14.232Z,1.70
2022-12-06T20:12:00.937Z,1.70
2022-12-06T20:14:34.562Z,1.70
2022-12-06T20:17:03.565Z,1.70
2022-12-06T20:19:30.993Z,1.70
2022-12-06T20:21:58.070Z,1.70
2022-12-06T20:24:25.474Z,1.70
2022-12-06T20:26:55.028Z,1.70
2022-12-06T20:29:22.789Z,1.70
2022-12-06T20:31:51.436Z,1.70
2022-12-06T20:34:18.987Z,1.70
2022-12-06T20:36:46.348Z,1.60
2022-12-06T20:39:25.733Z,1.70
2022-12-06T20:41:53.944Z,1.70
2022-12-06T20:44:21.457Z,1.70
2022-12-06T20:46:49.931Z,1.70
2022-12-06T20:49:17.422Z,1.70
2022-12-06T20:51:51.152Z,1.70
2022-12-06T20:54:20.211Z,1.70
2022-12-06T20:56:51.334Z,1.70
2022-12-06T20:59:19.562Z,1.70
2022-12-06T21:01:47.274Z,1.70
2022-12-06T21:04:15.561Z,1.70
2022-12-06T21:06:43.052Z,1.70
2022-12-06T21:09:10.641Z,1.70
2022-12-06T21:11:40.457Z,1.80
2022-12-06T21:14:08.105Z,1.80
2022-12-06T21:16:38.165Z,1.70
2022-12-06T21:19:08.251Z,1.80
2022-12-06T21:21:38.166Z,1.80
2022-12-06T21:24:08.201Z,1.80
2022-12-06T21:26:35.694Z,1.80
2022-12-06T21:29:03.787Z,1.80
2022-12-06T21:31:33.433Z,1.80
2022-12-06T21:34:01.327Z,1.80
2022-12-06T21:36:29.023Z,1.80
2022-12-06T21:38:57.136Z,1.80
2022-12-06T21:41:24.225Z,1.80
2022-12-06T21:43:51.676Z,1.90
2022-12-06T21:46:21.115Z,1.80
2022-12-06T21:48:52.763Z,1.90
2022-12-06T21:51:20.512Z,1.90
2022-12-06T21:53:48.733Z,1.90
2022-12-06T21:56:18.957Z,1.80
2022-12-06T21:58:47.021Z,1.90
2022-12-06T22:01:18.044Z,1.90
2022-12-06T22:03:49.953Z,1.90
2022-12-06T22:06:17.825Z,1.90
2022-12-06T22:08:46.848Z,1.90
2022-12-06T22:11:19.480Z,1.90
2022-12-06T22:13:48.122Z,1.90
2022-12-06T22:16:17.358Z,1.90
2022-12-06T22:18:46.472Z,1.90
2022-12-06T22:21:17.150Z,1.90
2022-12-06T22:23:45.245Z,1.90
2022-12-06T22:26:18.388Z,1.90
2022-12-06T22:28:46.728Z,1.90
2022-12-06T22:31:15.106Z,1.90
2022-12-06T22:33:43.135Z,1.90
2022-12-06T22:36:11.068Z,1.90
2022-12-06T22:38:38.794Z,1.90
2022-12-06T22:41:06.820Z,1.90
2022-12-06T22:43:34.832Z,1.90
2022-12-06T22:46:08.263Z,2.00
2022-12-06T22:48:36.235Z,2.00
2022-12-06T22:51:27.781Z,2.00
2022-12-06T22:54:00.211Z,2.00
2022-12-06T22:56:28.572Z,2.00
2022-12-06T22:58:57.506Z,2.00
2022-12-06T23:01:26.944Z,2.00
2022-12-06T23:03:54.719Z,2.00
2022-12-06T23:06:25.066Z,2.00
2022-12-06T23:08:53.876Z,2.00
2022-12-06T23:11:23.892Z,2.00
2022-12-06T23:13:51.613Z,2.00
2022-12-06T23:16:21.188Z,2.00
2022-12-06T23:18:49.192Z,2.00
2022-12-06T23:21:21.333Z,2.00
2022-12-06T23:23:54.271Z,2.00
2022-12-06T23:26:27.572Z,2.00
2022-12-06T23:28:55.151Z,2.00
2022-12-06T23:31:31.317Z,2.00
2022-12-06T23:34:10.008Z,2.00
2022-12-06T23:36:37.197Z,2.10
2022-12-06T23:39:05.683Z,2.00
2022-12-06T23:41:34.122Z,2.00
2022-12-06T23:44:02.039Z,2.00
2022-12-06T23:46:32.176Z,2.00
2022-12-06T23:49:00.507Z,2.10
2022-12-06T23:51:31.779Z,2.10
2022-12-06T23:53:59.976Z,2.10
2022-12-06T23:56:33.633Z,2.10
2022-12-06T23:59:02.201Z,2.10
